Lafayette Regional Airport
KLFT : now visible

Airfield :











YOU CAN JOIN US ON...

 
LOGIN :

Register | Disclaimer

   EN    FR    IT 

 









Legend :    VFR   Marginal VFR   IFR   Intensive IFR   Very Intensive IFR
Visi :
Ceiling :
>= 8 km
>= 3000ft
5 to 8 km
1000 to 3000 ft
1500m to 5 km
500 to 1000 ft
800 to 1500m
200 to 500 ft
< 800m
< 200 ft
Symbols :   Thunderstorms  Fog  Heavy snow  Heavy precipitations  Wind > 20 kt






- Airport Elevation : 42 ft
- IATA code : LFT


KLFT - Lafayette Regional

CURRENT METAR :
  • 181953Z AUTO 18005KT 10SM -RA BKN090 OVC110 21/19 A3000 RMK AO2 SLP158 P0004 T02060189

EXPIRED METARs :
  • 181940Z AUTO 18006KT 9SM -RA FEW009 OVC085 21/19 A2999 RMK AO2 P0003 T02110194
  • 181853Z AUTO 22005KT 10SM -RA OVC080 22/20 A3000 RMK AO2 LTG DSNT SW RAB01 SLP158 P0012 T02170200
  • 181814Z AUTO 18005KT 3SM -RA FEW013 SCT036 BKN090 23/20 A2999 RMK AO2 RAB01 P0008 T02280200
  • 181807Z AUTO 21007KT 1 3/4SM +RA BR FEW013 SCT033 BKN090 22/20 A3000 RMK AO2 RAB01 P0007 T02220200
  • 181800Z AUTO 21007KT 9SM FEW013 SCT100 SCT110 23/20 A2999 RMK AO2 T02280200

TAF KLFT
Valid from the 18 at 21:00 until the 19 at 18:00 UTC


182051Z 1821/1918 19010KT P6SM VCTS BKN060CB OVC100
FM190200 14009KT P6SM VCTS OVC010CB
FM191200 14010G17KT P6SM OVC015
PROB30 1912/1915 4SM TS BKN015CB
KZHU FIR / North America



MET'MAP, your aeronautical weather chart ! - Copyright ORBIFLY December 2007 - Disclaimer

ORBIFLY MET'MAP TEAM :

Programming & Development : Alexandra Zaïnal
Concept & original design : Baudouin d'Aumeries
Assistance for programming : Marc-Olivier Méhu
Technical & hardware support : Manuel Goepfert

Contact : metmap@orbifly.com




SOURCES & CREDITS :

   NOAA       Earth
Advisory